• Join FlightAware (Why Join?)
  • Login
  • US Flag 
09:14AM EDT


 

Airport Tracker/Info


-or-


 

Live Flight TrackerFlight Track Log ✈ N777NC ✈ 05-Jul-2013 ✈ KATL - KHOU

Flight Track Log - Related Links

Times and Time Zones

All times are in EDT time to prevent confusion due to time zone crossing. See the N777NC flight status page for this flight to view local times or setup timezone preferences in your user account.

Time Position Orientation Groundspeed Altitude Reporting Facility
EDT Latitude Longitude Course Direction KTS MPH feet Rate Location/Type
04:23PM 33.6667 -84.3500 259° West 202 232 3,000  Level Atlanta TRACON
04:24PM 33.7167 -84.3000 40° Northeast 284 327 5,100 2,220 Climbing Atlanta TRACON
04:25PM 33.5605 -84.8138 257° West  Level FlightAware Approximate
04:25PM 33.7833 -84.3000 360° North 294 338 7,500  Level Atlanta TRACON
04:26PM 33.5428 -84.9337 260° West  Level FlightAware Approximate
04:27PM 33.5242 -85.0639 260° West  Level FlightAware Approximate
04:27PM 33.8308 -84.4989 286° West 313 360 11,200  Level Atlanta Center
04:28PM 33.5038 -85.1937 259° West  Level FlightAware Approximate
04:28PM 33.7889 -84.6111 246° West 320 368 13,400  Level Atlanta Center
04:29PM 33.7464 -84.7183 245° Southwest 340 391 14,300 1,500 Climbing Atlanta Center
04:30PM 33.7042 -84.8278 245° Southwest 359 413 16,500 1,800 Climbing Atlanta Center
04:31PM 33.6594 -84.9497 246° West 385 443 18,000 1,500 Climbing Atlanta Center
04:32PM 33.6167 -85.0617 245° Southwest 385 443 19,600 1,500 Climbing Atlanta Center
04:33PM 33.5739 -85.1783 246° West 385 443 21,100 1,320 Climbing Atlanta Center
04:34PM 33.5311 -85.3047 248° West 397 457 22,300 1,200 Climbing Atlanta Center
04:36PM 33.4939 -85.4430 252° West  Level FlightAware Approximate
04:36PM 33.4842 -85.5606 252° West 415 478 24,800  Level Atlanta Center
04:37PM 33.4617 -85.7022 259° West 432 497 25,600 900 Climbing Atlanta Center
04:38PM 33.4344 -85.8461 257° West 426 490 26,600 900 Climbing Atlanta Center
04:39PM 33.4114 -85.9875 259° West 426 490 27,400 660 Climbing Atlanta Center
04:40PM 33.3883 -86.1336 259° West 433 498 28,000 300 Climbing Atlanta Center
04:41PM 33.3667 -86.2847 260° West 453 521 28,000  Level Atlanta Center
04:42PM 33.3475 -86.4286 261° West 453 521 28,000  Level Atlanta Center
04:43PM 33.3281 -86.5647 260° West 453 521 28,000  Level Atlanta Center
04:44PM 33.3083 -86.7083 261° West 453 521 28,000  Level Atlanta Center
04:45PM 33.2942 -86.8744 264° West 453 521 28,000  Level Atlanta Center
04:46PM 33.2739 -87.0253 261° West 461 531 28,000  Level Atlanta Center
04:47PM 33.2211 -87.1303 239° Southwest 435 501 28,000  Level Atlanta Center
04:48PM 33.1433 -87.2392 230° Southwest 427 491 28,000  Level Atlanta Center
04:50PM 33.0069 -87.4292 229° Southwest 426 490 28,000  Level Memphis Center
04:51PM 32.9300 -87.5381 230° Southwest 421 484 28,000 60 Level Memphis Center
04:52PM 32.8597 -87.6542 234° Southwest 432 497 28,200 720 Climbing Memphis Center
04:53PM 32.7933 -87.7722 236° Southwest 432 497 29,500 1,020 Climbing Memphis Center
04:54PM 32.7333 -87.9075 242° Southwest 432 497 30,300 720 Climbing Memphis Center
04:55PM 32.6753 -88.0350 242° Southwest 427 491 31,000 720 Climbing Memphis Center
04:56PM 32.6297 -88.1669 248° West 432 497 31,800 480 Climbing Memphis Center
04:57PM 32.5903 -88.3008 251° West 432 497 32,000 60 Climbing Memphis Center
04:58PM 32.5525 -88.4300 251° West 432 497 32,000  Level Memphis Center
04:59PM 32.4958 -88.5469 240° Southwest 418 481 32,000  Level Memphis Center
05:00PM 32.4369 -88.6664 240° Southwest 418 481 32,000  Level Memphis Center
05:01PM 32.3822 -88.7853 241° Southwest 418 481 32,000  Level Memphis Center
05:02PM 32.3461 -88.9139 252° West 413 475 32,000  Level Memphis Center
05:03PM 32.3122 -89.0447 253° West 413 475 32,000  Level Memphis Center
05:04PM 32.2800 -89.1753 254° West 413 475 32,000  Level Memphis Center
05:05PM 32.2478 -89.3061 254° West 419 482 32,000  Level Memphis Center
05:06PM 32.2114 -89.4342 251° West 419 482 32,000  Level Memphis Center
05:07PM 32.1725 -89.5597 250° West 419 482 32,000  Level Memphis Center
05:08PM 32.1314 -89.6875 249° West 419 482 32,000  Level Memphis Center
05:09PM 32.0925 -89.8178 251° West 419 482 32,000  Level Memphis Center
05:10PM 32.0553 -89.9456 251° West 419 482 32,000  Level Memphis Center
05:11PM 32.0306 -90.0781 258° West 419 482 32,000  Level Memphis Center
05:12PM 32.0219 -90.1556 263° West 417 480 32,000  Level Houston Center
05:13PM 32.0072 -90.2864 262° West 408 470 32,000 -60 Level Houston Center
05:14PM 31.9894 -90.4164 261° West 405 466 31,900  Descending Houston Center
05:15PM 31.9694 -90.5500 260° West 413 475 32,000  Climbing Houston Center
05:16PM 31.9489 -90.6800 259° West 412 474 32,000  Level Houston Center
05:17PM 31.9258 -90.8239 259° West 413 475 32,100  Climbing Houston Center
05:18PM 31.8764 -90.9464 245° Southwest 415 478 32,000 -60 Descending Houston Center
05:19PM 31.8333 -91.0683 247° West 409 471 32,000  Level Houston Center
05:20PM 31.7803 -91.1867 242° Southwest 407 468 32,000  Level Houston Center
05:21PM 31.7200 -91.3300 244° Southwest 408 470 32,000  Level Houston Center
05:22PM 31.6675 -91.4467 242° Southwest 406 467 32,000  Level Houston Center
05:23PM 31.6136 -91.5631 241° Southwest 405 466 32,000  Level Houston Center
05:24PM 31.5633 -91.6792 243° Southwest 401 461 32,000  Level Houston Center
05:25PM 31.5206 -91.7989 247° West 398 458 32,000  Level Houston Center
05:26PM 31.4831 -91.9222 250° West 400 460 32,000 -60 Level Houston Center
05:27PM 31.4414 -92.0525 249° West 400 460 31,900  Descending Houston Center
05:28PM 31.4022 -92.1722 249° West 394 453 32,000  Climbing Houston Center
05:29PM 31.3619 -92.2931 249° West 398 458 32,000  Level Houston Center
05:30PM 31.3200 -92.4133 248° West 399 459 32,000 -60 Level Houston Center
05:31PM 31.2697 -92.5589 248° West 403 464 31,900  Descending Houston Center
05:32PM 31.2294 -92.6792 249° West 401 461 32,000  Climbing Houston Center
05:33PM 31.1900 -92.7981 249° West 396 456 31,900  Descending Houston Center
05:34PM 31.1486 -92.9147 248° West 391 450 32,000 -300 Climbing Houston Center
05:35PM 31.1028 -93.0314 245° Southwest 395 455 31,300 -840 Descending Houston Center
05:36PM 31.0494 -93.1519 243° Southwest 412 474 30,300 -1,080 Descending Houston Center
05:37PM 30.9942 -93.2775 243° Southwest 429 494 29,200 -1,200 Descending Houston Center
05:38PM 30.9328 -93.4272 244° Southwest 430 495 27,900 -1,200 Descending Houston Center
05:39PM 30.8803 -93.5522 244° Southwest 431 496 26,800 -1,140 Descending Houston Center
05:41PM 30.8286 -93.6758 244° Southwest 429 494 25,600 -1,320 Descending Houston Center
05:42PM 30.7778 -93.7972 244° Southwest 423 487 24,100 -1,500 Descending Houston Center
05:43PM 30.7258 -93.9172 243° Southwest 420 483 22,600 -1,440 Descending Houston Center
05:44PM 30.6722 -94.0344 242° Southwest 415 478 21,200 -1,320 Descending Houston Center
05:45PM 30.6136 -94.1719 244° Southwest 401 461 20,000 -1,440 Descending Houston Center
05:46PM 30.5669 -94.2825 244° Southwest 385 443 18,300 -1,860 Descending Houston Center
05:47PM 30.5183 -94.3917 243° Southwest 382 440 16,200 -1,620 Descending Houston Center
05:48PM 30.4717 -94.5003 244° Southwest 378 435 15,100 -1,380 Descending Houston Center
05:49PM 30.4269 -94.6058 244° Southwest 377 434 13,400 -1,020 Descending Houston Center
05:50PM 30.3797 -94.7100 242° Southwest 368 423 13,100 -540 Descending Houston Center
05:51PM 30.3039 -94.8161 230° Southwest 359 413 12,400 -1,200 Descending Houston Center
05:52PM 30.2389 -94.9014 229° Southwest 355 409 10,700 -1,200 Descending Houston Center
05:53PM 30.1722 -94.9883 228° Southwest 360 414 10,000 -300 Descending Houston Center
05:54PM 30.1006 -95.0644 223° Southwest 358 412 10,100  Climbing Houston Center
05:55PM 30.0158 -95.0931 196° South 324 373 10,000  Descending Houston Center
05:56PM 29.9350 -95.1214 197° South 308 354 10,100 -120 Climbing Houston Center
05:57PM 29.8578 -95.1547 201° Southwest 300 345 9,800 -1,080 Descending Houston Center
05:58PM 29.7858 -95.1972 207° Southwest 295 339 8,000 -1,620 Descending Houston Center
05:59PM 29.7056 -95.2522 211° Southwest 283 326 6,500 -960 Descending Houston Center
06:00PM 29.6458 -95.3014 216° Southwest 277 319 6,100 -1,080 Descending Houston Center
06:01PM 29.6383 -95.3864 264° West 273 314 4,300 -1,740 Descending Houston Center
06:02PM 29.6703 -95.4631 296° West 277 319 2,600 -1,680 Descending Houston Center